Time;durP1;ratioP1;P1;durP2;ratioP2;P2;SDS_P1;SDS_P2;PMS_P1;PMS_P2;Temp;Humidity;BMP_temperature;BMP_pressure;BME280_temperature;BME280_humidity;BME280_pressure;Samples;Min_cycle;Max_cycle;Signal;HPM_P1;HPM_P2
2023/05/11 00:02:08;;;;;;;2.95;2.42;;;22.50;51.20;;;;;;5062080;28;20047;-65
2023/05/11 00:04:34;;;;;;;3.50;2.58;;;22.50;51.30;;;;;;5061646;28;20028;-66
2023/05/11 00:06:59;;;;;;;3.72;2.53;;;22.50;51.30;;;;;;5061844;28;20363;-63
2023/05/11 00:09:25;;;;;;;3.20;2.58;;;22.50;51.40;;;;;;5062255;28;20082;-61
2023/05/11 00:11:52;;;;;;;3.20;2.20;;;22.50;51.40;;;;;;5062988;28;20332;-62
2023/05/11 00:14:18;;;;;;;2.42;2.10;;;22.50;51.40;;;;;;5042837;28;20108;-70
2023/05/11 00:16:43;;;;;;;3.05;2.40;;;22.50;51.40;;;;;;5063423;28;20086;-65
2023/05/11 00:19:09;;;;;;;3.33;2.40;;;22.50;51.40;;;;;;5060349;28;20033;-67
2023/05/11 00:21:35;;;;;;;3.30;2.67;;;22.50;51.50;;;;;;5060521;28;20093;-63
2023/05/11 00:24:01;;;;;;;3.00;2.60;;;22.40;51.40;;;;;;5063010;28;20113;-66
2023/05/11 00:26:27;;;;;;;2.83;2.53;;;22.50;52.00;;;;;;5062589;28;20083;-66
2023/05/11 00:28:52;;;;;;;3.28;2.42;;;22.50;51.40;;;;;;5060112;28;20024;-66
2023/05/11 00:31:19;;;;;;;3.13;2.30;;;22.50;52.00;;;;;;5062995;28;20427;-62
2023/05/11 00:33:45;;;;;;;2.88;2.47;;;22.50;52.00;;;;;;5043199;28;20035;-67
2023/05/11 00:36:10;;;;;;;3.30;2.72;;;22.50;51.40;;;;;;5044029;28;20025;-65
2023/05/11 00:38:39;;;;;;;4.55;2.75;;;22.40;51.30;;;;;;5061800;28;20017;-63
2023/05/11 00:41:06;;;;;;;3.45;2.50;;;22.40;51.30;;;;;;5061665;28;20064;-68
2023/05/11 00:43:33;;;;;;;3.08;2.55;;;22.40;51.30;;;;;;5041842;28;20036;-65
2023/05/11 00:46:00;;;;;;;3.15;2.50;;;22.40;51.30;;;;;;5063006;28;20061;-65
2023/05/11 00:48:26;;;;;;;3.95;2.80;;;22.40;51.30;;;;;;5041530;28;20352;-67
2023/05/11 00:50:52;;;;;;;3.47;2.47;;;22.40;51.30;;;;;;5042416;28;20028;-65
2023/05/11 00:53:18;;;;;;;3.38;2.60;;;22.40;51.30;;;;;;5059775;28;20028;-66
2023/05/11 00:55:45;;;;;;;3.53;2.47;;;22.40;51.30;;;;;;5032947;28;20036;-66
2023/05/11 00:58:10;;;;;;;3.35;3.00;;;22.40;51.30;;;;;;5059421;28;20037;-66
2023/05/11 01:00:36;;;;;;;3.17;2.67;;;22.40;51.30;;;;;;5043080;28;20043;-65
2023/05/11 01:03:03;;;;;;;4.70;3.00;;;22.40;51.30;;;;;;5042007;28;20028;-64
2023/05/11 01:05:43;;;;;;;3.28;2.65;;;22.40;51.30;;;;;;5060372;28;20040;-63
2023/05/11 01:08:18;;;;;;;3.72;2.78;;;22.40;51.30;;;;;;5041113;28;20105;-63
2023/05/11 01:10:50;;;;;;;3.38;2.50;;;22.40;51.30;;;;;;5043355;28;20066;-64
2023/05/11 01:13:33;;;;;;;3.78;2.88;;;22.40;51.30;;;;;;5037757;28;20048;-65
2023/05/11 01:16:06;;;;;;;3.20;2.75;;;22.40;51.30;;;;;;5043759;28;20082;-65
2023/05/11 01:18:42;;;;;;;3.83;2.83;;;22.40;51.30;;;;;;5040670;28;20345;-65
2023/05/11 01:21:15;;;;;;;4.82;2.75;;;22.40;51.30;;;;;;5041859;28;20044;-67
2023/05/11 01:24:04;;;;;;;3.13;2.80;;;22.30;51.30;;;;;;5044134;28;20479;-70
2023/05/11 01:26:57;;;;;;;3.03;2.67;;;22.30;51.30;;;;;;5041761;28;20344;-62
2023/05/11 01:29:50;;;;;;;4.10;2.83;;;22.30;51.30;;;;;;5034283;28;20048;-63
2023/05/11 01:32:30;;;;;;;4.00;2.78;;;22.40;51.40;;;;;;5045425;28;20465;-65
2023/05/11 01:35:05;;;;;;;3.83;2.50;;;22.30;51.40;;;;;;5045885;28;20033;-64
2023/05/11 01:37:32;;;;;;;3.92;2.70;;;22.30;51.40;;;;;;5045123;28;20036;-65
2023/05/11 01:40:03;;;;;;;4.25;3.05;;;22.40;51.50;;;;;;5049001;28;20081;-64
2023/05/11 01:42:50;;;;;;;3.42;2.70;;;22.30;51.50;;;;;;5039824;28;20152;-68
2023/05/11 01:45:18;;;;;;;3.70;2.80;;;22.40;51.50;;;;;;5042976;28;20116;-68
2023/05/11 01:47:47;;;;;;;4.47;2.80;;;22.30;51.50;;;;;;5043566;28;20029;-62
2023/05/11 01:50:15;;;;;;;3.55;2.85;;;22.30;51.50;;;;;;5042771;28;20061;-66
2023/05/11 01:52:42;;;;;;;3.83;2.80;;;22.30;51.50;;;;;;5044248;28;20032;-64
2023/05/11 01:55:10;;;;;;;3.72;3.03;;;22.30;51.50;;;;;;5043522;28;20029;-66
2023/05/11 01:57:37;;;;;;;3.30;2.78;;;22.30;51.60;;;;;;5043417;28;20029;-65
2023/05/11 02:00:07;;;;;;;3.00;2.58;;;22.30;51.60;;;;;;5044981;28;20462;-66
2023/05/11 02:02:39;;;;;;;3.42;2.85;;;22.30;51.60;;;;;;5043281;28;20072;-63
2023/05/11 02:05:06;;;;;;;3.00;2.65;;;22.30;51.60;;;;;;5029383;28;20021;-66
2023/05/11 02:07:35;;;;;;;3.75;2.60;;;22.30;51.60;;;;;;5041929;28;20318;-64
2023/05/11 02:10:01;;;;;;;3.10;2.78;;;22.30;51.60;;;;;;5041542;28;20029;-66
2023/05/11 02:12:29;;;;;;;3.92;2.72;;;22.30;51.60;;;;;;5035426;28;20036;-67
2023/05/11 02:14:56;;;;;;;2.97;2.53;;;22.30;51.60;;;;;;5041954;28;20113;-63
2023/05/11 02:17:24;;;;;;;4.55;2.90;;;22.30;51.70;;;;;;5042578;28;20352;-67
2023/05/11 02:19:54;;;;;;;3.55;3.00;;;22.30;51.70;;;;;;5042672;28;20029;-64
2023/05/11 02:22:22;;;;;;;3.33;3.03;;;22.30;51.70;;;;;;5042630;28;20116;-64
2023/05/11 02:24:49;;;;;;;3.58;2.83;;;22.30;51.70;;;;;;5042126;28;20029;-65
2023/05/11 02:27:14;;;;;;;3.40;2.70;;;22.30;51.70;;;;;;5043257;28;20032;-64
2023/05/11 02:29:40;;;;;;;3.03;2.60;;;22.30;51.70;;;;;;5040129;28;20444;-66
2023/05/11 02:32:11;;;;;;;3.25;2.95;;;22.30;51.80;;;;;;5040317;28;20040;-67
2023/05/11 02:34:42;;;;;;;3.70;2.45;;;22.30;51.80;;;;;;5042555;28;20029;-63
2023/05/11 02:37:21;;;;;;;3.50;2.50;;;22.30;51.80;;;;;;5041828;28;20091;-64
2023/05/11 02:39:58;;;;;;;3.92;2.78;;;22.30;51.80;;;;;;5034468;28;20112;-62
2023/05/11 02:42:26;;;;;;;3.85;2.85;;;22.30;51.80;;;;;;5061186;28;20443;-64
2023/05/11 02:44:59;;;;;;;2.97;2.67;;;22.30;51.90;;;;;;5044802;28;20459;-63
2023/05/11 02:47:31;;;;;;;3.50;2.60;;;22.30;51.90;;;;;;5044038;28;20051;-69
2023/05/11 02:50:00;;;;;;;3.53;2.65;;;22.30;51.90;;;;;;5042890;28;20095;-66
2023/05/11 02:52:29;;;;;;;2.83;2.53;;;22.30;51.90;;;;;;5042398;28;20064;-64
2023/05/11 02:54:58;;;;;;;4.22;2.65;;;22.30;51.90;;;;;;5035385;28;20021;-65
2023/05/11 02:57:25;;;;;;;2.88;2.58;;;22.30;52.00;;;;;;5043536;28;20203;-65
2023/05/11 02:59:51;;;;;;;2.97;2.65;;;22.20;51.90;;;;;;5044615;28;20100;-65
2023/05/11 03:02:17;;;;;;;2.85;2.55;;;22.20;51.90;;;;;;5044568;28;20080;-69
2023/05/11 03:04:43;;;;;;;3.30;2.60;;;22.20;51.90;;;;;;5045435;28;20352;-67
2023/05/11 03:07:09;;;;;;;3.33;2.70;;;22.30;51.90;;;;;;5060315;28;20055;-65
2023/05/11 03:09:35;;;;;;;4.35;2.97;;;22.20;51.90;;;;;;5045939;28;20037;-67
2023/05/11 03:12:02;;;;;;;3.13;2.72;;;22.20;51.90;;;;;;5043587;28;20428;-67
2023/05/11 03:14:35;;;;;;;4.25;3.08;;;22.20;51.90;;;;;;5044934;28;20036;-64
2023/05/11 03:17:03;;;;;;;3.05;2.58;;;22.20;51.90;;;;;;5045783;28;20136;-64
2023/05/11 03:19:30;;;;;;;2.83;2.45;;;22.20;51.90;;;;;;5044293;28;20017;-69
2023/05/11 03:21:58;;;;;;;3.67;2.78;;;22.20;51.90;;;;;;5042919;28;20036;-65
2023/05/11 03:24:25;;;;;;;3.38;2.95;;;22.20;51.90;;;;;;5046213;28;20036;-63
2023/05/11 03:26:56;;;;;;;3.17;2.75;;;22.20;51.90;;;;;;5044029;28;20039;-63
2023/05/11 03:29:26;;;;;;;3.20;2.72;;;22.20;51.90;;;;;;5060247;28;20051;-66
2023/05/11 03:31:53;;;;;;;3.42;2.75;;;22.20;51.90;;;;;;5044432;28;20029;-66
2023/05/11 03:34:20;;;;;;;4.68;3.13;;;22.20;52.00;;;;;;5042560;28;20045;-67
2023/05/11 03:36:51;;;;;;;3.00;2.53;;;22.20;52.00;;;;;;5045191;28;20104;-63
2023/05/11 03:39:20;;;;;;;3.60;2.75;;;22.20;52.10;;;;;;5039250;28;20356;-65
2023/05/11 03:41:48;;;;;;;4.00;2.55;;;22.20;52.10;;;;;;5040561;28;20037;-69
2023/05/11 03:44:19;;;;;;;5.50;2.78;;;22.20;52.10;;;;;;5039507;28;20499;-63
2023/05/11 03:46:49;;;;;;;3.80;2.90;;;22.20;52.10;;;;;;5040084;28;20028;-66
2023/05/11 03:49:16;;;;;;;2.92;2.42;;;22.20;52.10;;;;;;5040561;28;20094;-68
2023/05/11 03:51:44;;;;;;;2.75;2.47;;;22.20;52.10;;;;;;5039874;28;20451;-69
2023/05/11 03:54:10;;;;;;;3.22;2.65;;;22.20;52.10;;;;;;5039905;28;20025;-63
2023/05/11 03:56:40;;;;;;;3.15;2.60;;;22.20;52.10;;;;;;5039627;28;20124;-65
2023/05/11 03:59:07;;;;;;;4.05;3.08;;;22.20;52.10;;;;;;5040996;28;20099;-66
2023/05/11 04:01:33;;;;;;;3.08;2.35;;;22.20;52.10;;;;;;5039676;28;20083;-70
2023/05/11 04:03:59;;;;;;;3.10;2.80;;;22.20;52.10;;;;;;5042152;28;20040;-67
2023/05/11 04:06:25;;;;;;;3.20;2.90;;;22.20;52.10;;;;;;5039816;28;20360;-66
2023/05/11 04:09:11;;;;;;;2.92;2.55;;;22.20;52.10;;;;;;5039309;28;20029;-70
2023/05/11 04:11:37;;;;;;;3.13;2.55;;;22.20;52.10;;;;;;5038969;28;20180;-66
2023/05/11 04:14:04;;;;;;;2.97;2.67;;;22.10;52.10;;;;;;5041321;28;20025;-68
2023/05/11 04:16:29;;;;;;;3.17;2.47;;;22.10;52.10;;;;;;5040249;28;20427;-64
2023/05/11 04:18:55;;;;;;;2.67;2.47;;;22.20;52.40;;;;;;5040808;28;20136;-67
2023/05/11 04:21:21;;;;;;;2.95;2.35;;;22.10;52.10;;;;;;5039065;28;20106;-66
2023/05/11 04:23:47;;;;;;;2.85;2.47;;;22.20;52.10;;;;;;5040886;28;20076;-66
2023/05/11 04:26:13;;;;;;;2.55;2.22;;;22.20;52.10;;;;;;5032012;28;20330;-67
2023/05/11 04:28:38;;;;;;;3.25;2.42;;;22.20;52.10;;;;;;5040215;28;20105;-65
2023/05/11 04:31:04;;;;;;;2.80;2.35;;;22.20;52.10;;;;;;5040380;28;20460;-65
2023/05/11 04:33:30;;;;;;;2.88;2.40;;;22.20;52.20;;;;;;5038243;28;20033;-64
2023/05/11 04:35:57;;;;;;;3.20;2.60;;;22.10;52.10;;;;;;5038756;28;20036;-67
2023/05/11 04:38:24;;;;;;;2.70;2.28;;;22.10;52.10;;;;;;5036815;28;20070;-64
2023/05/11 04:40:50;;;;;;;2.85;2.25;;;22.10;52.10;;;;;;5039909;28;20107;-65
2023/05/11 04:43:16;;;;;;;2.70;2.35;;;22.10;52.10;;;;;;5039800;28;20049;-67
2023/05/11 04:45:49;;;;;;;2.65;2.42;;;22.10;52.10;;;;;;5025224;28;20037;-63
2023/05/11 04:48:19;;;;;;;2.70;2.50;;;22.10;52.10;;;;;;5037027;28;20116;-64
2023/05/11 04:50:45;;;;;;;2.85;2.50;;;22.10;52.10;;;;;;5040787;28;20112;-67
2023/05/11 04:53:11;;;;;;;2.88;2.40;;;22.10;52.10;;;;;;5037903;28;20075;-65
2023/05/11 04:55:37;;;;;;;3.00;2.53;;;22.10;52.10;;;;;;5039148;28;20017;-69
2023/05/11 04:58:03;;;;;;;2.65;2.30;;;22.10;52.10;;;;;;5039965;28;20068;-66
2023/05/11 05:00:29;;;;;;;2.72;2.30;;;22.10;52.10;;;;;;5039786;28;20534;-66
2023/05/11 05:02:54;;;;;;;2.38;2.17;;;22.10;52.10;;;;;;5040040;28;20086;-68
2023/05/11 05:05:20;;;;;;;2.58;2.30;;;22.10;52.10;;;;;;5042882;28;20084;-67
2023/05/11 05:07:46;;;;;;;2.30;2.10;;;22.10;52.10;;;;;;5044182;28;20433;-65
2023/05/11 05:10:12;;;;;;;2.20;2.00;;;22.10;52.20;;;;;;5044199;28;20120;-67
2023/05/11 05:12:38;;;;;;;3.65;2.55;;;22.10;52.20;;;;;;5043515;28;20052;-66
2023/05/11 05:15:05;;;;;;;2.92;2.70;;;22.10;52.30;;;;;;5046247;28;20029;-67
2023/05/11 05:17:31;;;;;;;2.85;2.53;;;22.10;52.30;;;;;;5043381;28;20048;-71
2023/05/11 05:19:57;;;;;;;2.70;2.40;;;22.10;52.30;;;;;;5040765;28;20029;-64
2023/05/11 05:22:23;;;;;;;2.67;2.42;;;22.10;52.30;;;;;;5044568;28;20132;-65
2023/05/11 05:24:49;;;;;;;2.58;2.38;;;22.10;52.30;;;;;;5045196;28;20024;-67
2023/05/11 05:27:16;;;;;;;3.13;2.47;;;22.10;52.30;;;;;;5033634;28;20095;-66
2023/05/11 05:29:42;;;;;;;3.05;2.20;;;22.10;52.40;;;;;;5041512;28;20029;-66
2023/05/11 05:32:08;;;;;;;3.08;2.55;;;22.10;52.40;;;;;;5044379;28;20136;-64
2023/05/11 05:34:34;;;;;;;2.53;2.33;;;22.10;52.40;;;;;;5041492;28;20037;-68
2023/05/11 05:37:00;;;;;;;2.63;2.42;;;22.10;52.40;;;;;;5043475;28;20062;-65
2023/05/11 05:39:26;;;;;;;3.30;2.80;;;22.10;52.40;;;;;;5031128;28;20049;-66
2023/05/11 05:41:52;;;;;;;2.50;2.30;;;22.10;52.40;;;;;;5040263;28;20395;-63
2023/05/11 05:44:18;;;;;;;2.60;2.17;;;22.10;52.40;;;;;;5045338;28;20025;-65
2023/05/11 05:46:44;;;;;;;3.53;2.25;;;22.10;52.40;;;;;;5044173;28;20309;-67
2023/05/11 05:49:10;;;;;;;2.15;1.92;;;22.10;52.40;;;;;;5037161;28;20136;-63
2023/05/11 05:51:36;;;;;;;2.75;2.47;;;22.00;52.40;;;;;;5042664;28;20112;-66
2023/05/11 05:54:02;;;;;;;2.30;2.10;;;22.10;52.50;;;;;;5041502;28;20145;-65
2023/05/11 05:56:30;;;;;;;2.75;1.83;;;22.00;52.40;;;;;;5043843;28;20037;-66
2023/05/11 05:58:56;;;;;;;2.17;1.88;;;22.10;52.50;;;;;;5041503;28;20224;-65
2023/05/11 06:01:22;;;;;;;2.03;1.83;;;22.10;52.50;;;;;;5042153;28;20025;-65
2023/05/11 06:03:50;;;;;;;3.15;2.30;;;22.10;52.50;;;;;;5040660;28;20068;-63
2023/05/11 06:06:16;;;;;;;2.05;1.85;;;22.10;52.60;;;;;;5025432;28;20021;-67
2023/05/11 06:08:42;;;;;;;2.42;1.88;;;22.10;52.60;;;;;;5042705;28;20040;-64
2023/05/11 06:11:08;;;;;;;2.03;1.83;;;22.10;52.60;;;;;;5043944;28;20033;-70
2023/05/11 06:13:35;;;;;;;2.10;1.90;;;22.00;52.60;;;;;;5039099;28;20423;-66
2023/05/11 06:16:03;;;;;;;1.67;1.58;;;22.00;52.60;;;;;;5038944;28;20037;-62
2023/05/11 06:18:32;;;;;;;1.95;1.70;;;22.10;52.60;;;;;;5038387;28;20029;-62
2023/05/11 06:20:59;;;;;;;1.60;1.50;;;22.10;52.60;;;;;;5034779;28;20029;-63
2023/05/11 06:23:26;;;;;;;1.60;1.50;;;22.10;52.60;;;;;;5033545;28;20040;-66
2023/05/11 06:25:52;;;;;;;1.52;1.33;;;22.10;52.60;;;;;;5039094;28;20052;-63
2023/05/11 06:28:21;;;;;;;1.38;1.27;;;22.10;52.60;;;;;;5041760;28;20029;-62
2023/05/11 06:30:48;;;;;;;2.30;1.40;;;22.10;52.80;;;;;;5034096;28;20424;-62
2023/05/11 06:33:14;;;;;;;1.50;1.38;;;22.10;52.80;;;;;;5037233;28;20052;-63
2023/05/11 06:35:39;;;;;;;1.92;1.60;;;22.10;52.80;;;;;;5048926;28;20061;-63
2023/05/11 06:38:08;;;;;;;1.23;1.10;;;22.10;52.90;;;;;;5034178;28;20428;-62
2023/05/11 06:40:35;;;;;;;2.00;1.50;;;22.10;52.80;;;;;;5039550;28;20061;-65
2023/05/11 06:43:01;;;;;;;1.40;1.30;;;22.10;52.80;;;;;;5042708;28;20459;-63
2023/05/11 06:45:43;;;;;;;1.70;1.38;;;22.10;52.80;;;;;;5046902;28;20123;-64
2023/05/11 06:48:09;;;;;;;1.52;1.20;;;22.10;52.70;;;;;;5046085;28;20029;-64
2023/05/11 06:50:35;;;;;;;2.05;1.50;;;22.10;52.70;;;;;;5036862;28;20029;-62
2023/05/11 06:53:02;;;;;;;1.45;1.35;;;22.10;52.70;;;;;;5039947;28;20067;-66
2023/05/11 06:55:28;;;;;;;1.40;1.30;;;22.10;52.60;;;;;;5041519;28;20028;-64
2023/05/11 06:57:55;;;;;;;1.33;1.23;;;22.10;52.60;;;;;;5065859;28;20100;-62
2023/05/11 07:00:21;;;;;;;1.52;1.42;;;22.20;52.70;;;;;;5054910;28;20432;-64
2023/05/11 07:02:48;;;;;;;2.38;1.50;;;22.20;52.70;;;;;;5059784;28;20120;-63
2023/05/11 07:05:14;;;;;;;1.77;1.63;;;22.20;52.70;;;;;;5053879;28;20020;-65
2023/05/11 07:07:40;;;;;;;1.92;1.75;;;22.20;52.70;;;;;;5038866;28;20029;-61
2023/05/11 07:10:07;;;;;;;1.92;1.70;;;22.20;52.70;;;;;;5055117;28;20036;-65
2023/05/11 07:12:34;;;;;;;2.35;1.95;;;22.20;52.70;;;;;;5067575;28;20117;-64
2023/05/11 07:15:00;;;;;;;2.70;1.80;;;22.20;52.70;;;;;;5074710;28;20050;-62
2023/05/11 07:17:27;;;;;;;2.00;1.60;;;22.20;52.60;;;;;;5068492;28;20098;-63
2023/05/11 07:19:54;;;;;;;1.50;1.40;;;22.20;52.70;;;;;;5020297;28;20041;-63
2023/05/11 07:22:21;;;;;;;1.90;1.60;;;22.20;52.60;;;;;;5055988;28;20045;-62
2023/05/11 07:24:47;;;;;;;2.58;2.28;;;22.20;52.60;;;;;;5053697;28;20039;-64
2023/05/11 07:27:13;;;;;;;1.85;1.75;;;22.20;52.60;;;;;;5053739;28;20025;-64
2023/05/11 07:29:39;;;;;;;2.25;1.90;;;22.20;52.60;;;;;;5061577;28;20023;-66
2023/05/11 07:32:06;;;;;;;5.88;1.90;;;22.30;52.70;;;;;;5038183;28;20028;-64
2023/05/11 07:34:32;;;;;;;2.42;1.88;;;22.30;52.70;;;;;;5040208;28;20028;-63
2023/05/11 07:36:57;;;;;;;1.70;1.60;;;22.30;52.70;;;;;;5059639;28;20048;-61
2023/05/11 07:39:23;;;;;;;1.88;1.63;;;22.30;52.70;;;;;;5059743;28;20035;-64
2023/05/11 07:41:49;;;;;;;2.13;1.83;;;22.30;52.70;;;;;;5059900;28;20055;-64
2023/05/11 07:44:15;;;;;;;1.90;1.50;;;22.30;52.60;;;;;;5060346;28;20029;-62
2023/05/11 07:46:41;;;;;;;2.40;1.95;;;22.30;52.60;;;;;;5061838;28;20661;-64
2023/05/11 07:49:08;;;;;;;2.63;2.10;;;22.30;52.60;;;;;;5066017;28;20059;-63
2023/05/11 07:51:34;;;;;;;2.63;1.92;;;22.30;52.60;;;;;;5064282;28;20108;-66
2023/05/11 07:54:00;;;;;;;2.58;2.05;;;22.30;52.60;;;;;;5062574;28;20483;-63
2023/05/11 07:56:26;;;;;;;2.47;2.17;;;22.30;52.60;;;;;;5059579;28;20195;-62
2023/05/11 07:58:52;;;;;;;2.95;2.33;;;22.30;52.60;;;;;;5043823;28;20029;-62
2023/05/11 08:01:18;;;;;;;2.75;2.47;;;22.30;52.60;;;;;;5059305;28;20068;-63
2023/05/11 08:03:43;;;;;;;3.10;2.75;;;22.30;52.60;;;;;;5059089;28;20121;-67
2023/05/11 08:06:10;;;;;;;3.70;2.80;;;22.30;52.50;;;;;;5043724;28;20111;-63
2023/05/11 08:08:36;;;;;;;3.30;2.72;;;22.30;52.50;;;;;;5062510;28;20063;-63
2023/05/11 08:11:03;;;;;;;3.58;3.08;;;22.30;52.50;;;;;;5060138;28;20402;-65
2023/05/11 08:13:28;;;;;;;2.67;2.47;;;22.30;52.50;;;;;;5063728;28;20289;-61
2023/05/11 08:15:54;;;;;;;4.00;3.13;;;22.30;52.40;;;;;;5057032;28;20062;-68
2023/05/11 08:18:21;;;;;;;4.05;3.20;;;22.30;52.40;;;;;;5057819;28;20071;-66
2023/05/11 08:20:47;;;;;;;3.95;3.53;;;22.30;52.40;;;;;;5062760;28;20032;-62
2023/05/11 08:23:16;;;;;;;4.85;3.75;;;22.40;52.40;;;;;;5059412;28;20025;-64
2023/05/11 08:25:53;;;;;;;4.53;3.83;;;22.30;52.30;;;;;;5043221;28;20127;-62
2023/05/11 08:28:20;;;;;;;3.75;3.42;;;22.30;52.20;;;;;;5060975;28;20451;-64
2023/05/11 08:30:52;;;;;;;4.35;3.95;;;22.40;52.20;;;;;;5062499;28;20436;-61
2023/05/11 08:33:17;;;;;;;3.78;3.38;;;22.40;52.10;;;;;;5060490;28;20100;-62
2023/05/11 08:35:43;;;;;;;4.15;3.72;;;22.40;52.00;;;;;;5059566;28;20104;-65
2023/05/11 08:38:09;;;;;;;4.18;3.78;;;22.40;52.00;;;;;;5058798;28;20040;-65
2023/05/11 08:40:35;;;;;;;4.65;3.88;;;22.40;51.90;;;;;;5059732;28;20037;-62
2023/05/11 08:43:06;;;;;;;4.10;3.60;;;22.40;51.80;;;;;;5059999;28;20040;-67
2023/05/11 08:45:35;;;;;;;4.10;3.70;;;22.40;51.80;;;;;;5061753;28;20487;-64
2023/05/11 08:48:02;;;;;;;4.25;3.70;;;22.40;51.80;;;;;;5057343;28;20025;-67
2023/05/11 08:50:28;;;;;;;4.50;3.92;;;22.40;51.80;;;;;;5061640;28;20082;-63
2023/05/11 08:52:53;;;;;;;4.03;3.63;;;22.40;51.80;;;;;;5058836;28;20032;-66
2023/05/11 08:55:21;;;;;;;5.38;4.25;;;22.40;51.80;;;;;;5059015;28;20127;-63
2023/05/11 08:57:47;;;;;;;4.28;3.80;;;22.40;51.80;;;;;;5031947;28;20063;-65
2023/05/11 09:00:14;;;;;;;4.43;3.75;;;22.40;51.80;;;;;;5059363;28;20028;-68
2023/05/11 09:02:41;;;;;;;4.32;3.90;;;22.40;51.80;;;;;;5057672;28;20136;-65
2023/05/11 09:05:08;;;;;;;4.15;3.75;;;22.40;51.80;;;;;;5058507;28;20036;-67
2023/05/11 09:07:39;;;;;;;4.20;3.80;;;22.40;51.70;;;;;;5057826;28;20302;-67
2023/05/11 09:10:05;;;;;;;3.60;3.28;;;22.50;51.70;;;;;;5062726;28;20024;-66
2023/05/11 09:12:31;;;;;;;4.15;3.42;;;22.50;51.70;;;;;;5067780;28;20039;-65
2023/05/11 09:14:57;;;;;;;4.38;3.97;;;22.50;51.60;;;;;;5044316;28;20029;-64
2023/05/11 09:17:25;;;;;;;5.80;3.67;;;22.50;51.60;;;;;;5059371;28;20032;-66
2023/05/11 09:19:59;;;;;;;3.92;3.53;;;22.50;51.60;;;;;;5059752;28;20025;-69
2023/05/11 09:22:25;;;;;;;3.60;3.30;;;22.50;51.50;;;;;;5052702;28;20033;-65
2023/05/11 09:24:52;;;;;;;4.07;3.67;;;22.50;51.50;;;;;;5053616;28;20029;-64
2023/05/11 09:27:18;;;;;;;4.38;3.63;;;22.50;51.50;;;;;;5035139;28;20056;-65
2023/05/11 09:29:44;;;;;;;6.07;4.03;;;22.50;51.50;;;;;;5053293;28;20336;-64
2023/05/11 09:32:10;;;;;;;4.20;3.63;;;22.50;51.50;;;;;;5056507;28;20086;-63
2023/05/11 09:34:36;;;;;;;4.35;3.58;;;22.60;51.60;;;;;;5051630;28;20103;-62
2023/05/11 09:37:02;;;;;;;3.95;3.55;;;22.50;51.50;;;;;;5053157;28;20112;-64
2023/05/11 09:39:30;;;;;;;4.05;3.42;;;22.60;51.60;;;;;;5057893;28;20029;-64
2023/05/11 09:42:16;;;;;;;4.22;3.50;;;22.60;51.60;;;;;;5032359;28;20048;-64
2023/05/11 09:44:43;;;;;;;3.60;3.22;;;22.60;51.60;;;;;;5051413;28;20025;-64
2023/05/11 09:47:21;;;;;;;4.88;3.50;;;22.60;51.50;;;;;;5035453;28;20459;-63
2023/05/11 09:49:47;;;;;;;5.45;3.90;;;22.60;51.50;;;;;;5057978;28;20485;-63
2023/05/11 09:52:16;;;;;;;4.65;3.65;;;22.60;51.40;;;;;;5039919;28;20041;-65
2023/05/11 09:54:44;;;;;;;4.03;3.63;;;22.60;51.40;;;;;;5055918;28;20017;-63
2023/05/11 09:57:22;;;;;;;3.92;3.42;;;22.60;51.30;;;;;;5028725;28;20055;-62
2023/05/11 09:59:48;;;;;;;4.05;3.65;;;22.60;51.30;;;;;;5058249;28;20053;-64
2023/05/11 10:02:25;;;;;;;3.92;3.53;;;22.60;51.30;;;;;;5059123;28;20086;-64
2023/05/11 10:04:53;;;;;;;4.10;3.45;;;22.60;51.30;;;;;;5041268;28;20511;-66
2023/05/11 10:07:33;;;;;;;3.88;3.13;;;22.60;51.40;;;;;;5058098;28;20032;-62
2023/05/11 10:10:01;;;;;;;4.88;2.90;;;22.60;51.40;;;;;;5057406;28;20017;-63
2023/05/11 10:12:29;;;;;;;3.47;3.17;;;22.60;51.50;;;;;;5037735;28;20765;-62
2023/05/11 10:15:15;;;;;;;3.90;3.30;;;22.70;51.70;;;;;;5057165;28;20086;-64
2023/05/11 10:17:43;;;;;;;4.05;3.40;;;22.60;51.70;;;;;;5051699;28;20324;-65
2023/05/11 10:20:11;;;;;;;3.58;3.28;;;22.70;51.90;;;;;;5057455;28;20447;-65
2023/05/11 10:22:38;;;;;;;4.55;3.60;;;22.70;52.00;;;;;;5038064;28;20075;-63
2023/05/11 10:25:05;;;;;;;3.67;3.10;;;22.70;52.00;;;;;;5053796;28;20035;-64
2023/05/11 10:27:31;;;;;;;3.40;3.05;;;22.70;52.00;;;;;;5053654;28;20468;-61
2023/05/11 10:29:58;;;;;;;4.22;3.25;;;22.70;52.10;;;;;;5039832;28;20037;-64
2023/05/11 10:32:24;;;;;;;4.97;2.83;;;22.70;52.10;;;;;;5056853;28;20024;-63
2023/05/11 10:34:50;;;;;;;3.15;2.85;;;22.70;52.20;;;;;;5050823;28;20036;-64
2023/05/11 10:37:16;;;;;;;3.55;3.22;;;22.70;52.20;;;;;;5054778;28;20048;-61
2023/05/11 10:39:44;;;;;;;3.30;2.80;;;22.70;52.90;;;;;;5034248;28;20075;-65
2023/05/11 10:42:24;;;;;;;4.22;3.20;;;22.80;52.40;;;;;;5052045;28;20060;-63
2023/05/11 10:44:50;;;;;;;4.13;3.00;;;22.80;52.30;;;;;;5053577;28;20037;-64
2023/05/11 10:47:30;;;;;;;3.42;3.13;;;22.80;52.30;;;;;;5053440;28;20039;-62
2023/05/11 10:50:26;;;;;;;3.00;2.70;;;22.80;52.30;;;;;;5032697;28;20116;-64
2023/05/11 10:53:04;;;;;;;3.35;3.05;;;22.80;52.30;;;;;;5036509;28;20067;-66
2023/05/11 10:55:55;;;;;;;5.63;2.78;;;22.80;52.30;;;;;;5050595;28;20048;-65
2023/05/11 10:58:54;;;;;;;3.35;2.90;;;22.80;52.20;;;;;;5059397;28;20099;-65
2023/05/11 11:01:38;;;;;;;3.60;2.78;;;22.80;52.00;;;;;;4999549;28;20029;-64
2023/05/11 11:04:06;;;;;;;3.80;2.90;;;22.90;52.00;;;;;;5050714;28;20029;-67
2023/05/11 11:06:34;;;;;;;3.63;3.13;;;22.80;51.90;;;;;;5052559;28;20313;-63
2023/05/11 11:09:06;;;;;;;5.43;3.08;;;22.90;51.80;;;;;;5052067;28;20063;-66
2023/05/11 11:11:46;;;;;;;3.28;2.92;;;22.90;51.60;;;;;;5036630;28;20025;-69
2023/05/11 11:14:18;;;;;;;3.15;2.58;;;22.90;51.60;;;;;;5039370;28;20028;-69
2023/05/11 11:17:15;;;;;;;3.03;2.70;;;22.90;51.50;;;;;;5055219;28;20044;-64
2023/05/11 11:19:41;;;;;;;2.63;2.42;;;22.90;51.50;;;;;;5058698;28;20032;-65
2023/05/11 11:22:37;;;;;;;3.60;3.00;;;23.00;51.50;;;;;;5054083;28;20052;-68
2023/05/11 11:25:11;;;;;;;3.03;2.72;;;23.00;51.30;;;;;;5038368;28;20025;-65
2023/05/11 11:27:40;;;;;;;3.38;2.80;;;23.10;51.20;;;;;;5058356;28;20033;-65
2023/05/11 11:30:29;;;;;;;3.95;3.25;;;23.20;51.10;;;;;;5060030;28;20634;-65
2023/05/11 11:33:15;;;;;;;4.28;3.63;;;23.30;50.90;;;;;;5057085;28;20482;-67
2023/05/11 11:35:41;;;;;;;3.95;3.22;;;23.40;50.80;;;;;;5041620;28;20402;-66
2023/05/11 11:38:16;;;;;;;3.50;3.20;;;23.50;50.70;;;;;;5041407;28;20199;-67
2023/05/11 11:40:45;;;;;;;3.70;3.28;;;23.50;50.60;;;;;;5051219;28;20174;-66
2023/05/11 11:43:13;;;;;;;3.92;3.17;;;23.70;50.50;;;;;;5059932;28;20028;-64
2023/05/11 11:45:52;;;;;;;5.00;3.28;;;23.70;50.30;;;;;;5056463;28;20024;-63
2023/05/11 11:48:22;;;;;;;5.22;2.88;;;23.80;50.10;;;;;;5056585;28;20021;-67
2023/05/11 11:50:59;;;;;;;3.80;3.10;;;23.90;50.00;;;;;;5064325;28;20116;-65
2023/05/11 11:53:36;;;;;;;3.47;2.72;;;24.00;49.90;;;;;;5054636;28;20093;-67
2023/05/11 11:56:06;;;;;;;4.55;2.65;;;24.00;49.60;;;;;;5053928;28;20032;-63
2023/05/11 11:58:44;;;;;;;2.92;2.63;;;24.10;49.50;;;;;;5052359;28;20033;-68
2023/05/11 12:01:22;;;;;;;3.13;2.47;;;24.10;49.20;;;;;;5055205;28;20069;-65
2023/05/11 12:04:21;;;;;;;2.83;2.53;;;24.20;49.00;;;;;;5053226;28;20082;-64
2023/05/11 12:06:56;;;;;;;4.70;3.13;;;24.20;48.80;;;;;;5048919;28;20069;-67
2023/05/11 12:09:22;;;;;;;2.80;2.50;;;24.20;48.70;;;;;;5034283;28;20035;-65
2023/05/11 12:11:48;;;;;;;2.88;2.20;;;24.30;48.70;;;;;;5049348;28;20063;-68
2023/05/11 12:14:15;;;;;;;2.70;2.35;;;24.30;48.50;;;;;;5032548;28;20033;-67
2023/05/11 12:16:41;;;;;;;3.00;2.42;;;24.30;48.40;;;;;;5053770;28;20379;-65
2023/05/11 12:19:07;;;;;;;3.25;2.67;;;24.30;48.40;;;;;;5034460;28;20024;-66
2023/05/11 12:21:32;;;;;;;3.70;2.97;;;24.30;48.30;;;;;;5035132;28;20071;-64
2023/05/11 12:24:04;;;;;;;2.58;2.38;;;24.30;48.20;;;;;;5052851;28;20032;-64
2023/05/11 12:26:31;;;;;;;4.03;3.22;;;24.40;48.30;;;;;;5051769;28;20036;-65
2023/05/11 12:29:11;;;;;;;3.35;2.92;;;24.30;48.30;;;;;;5036764;28;20094;-65
2023/05/11 12:31:42;;;;;;;3.90;2.70;;;24.40;48.40;;;;;;5030841;28;20490;-65
2023/05/11 12:34:19;;;;;;;3.80;3.10;;;24.40;48.40;;;;;;5050019;28;20032;-70
2023/05/11 12:36:47;;;;;;;5.60;2.58;;;24.40;48.40;;;;;;5037696;28;20033;-64
2023/05/11 12:39:21;;;;;;;6.22;2.70;;;24.50;48.50;;;;;;5051289;28;20033;-64
2023/05/11 12:41:48;;;;;;;3.15;2.30;;;24.50;48.50;;;;;;5034577;28;20064;-64
2023/05/11 12:44:16;;;;;;;3.30;2.70;;;24.50;48.20;;;;;;5032083;28;20036;-65
2023/05/11 12:46:43;;;;;;;3.85;2.67;;;24.50;48.20;;;;;;5052647;28;20128;-63
2023/05/11 12:49:12;;;;;;;3.88;3.05;;;24.60;48.40;;;;;;5053768;28;20028;-64
2023/05/11 12:52:00;;;;;;;6.63;3.28;;;24.60;48.40;;;;;;5061683;28;20103;-67
2023/05/11 12:54:36;;;;;;;4.38;3.80;;;24.50;48.40;;;;;;5052171;28;20115;-64
2023/05/11 12:57:03;;;;;;;4.32;3.90;;;24.60;48.60;;;;;;5053905;28;20079;-65
2023/05/11 12:59:36;;;;;;;4.93;3.88;;;24.50;48.60;;;;;;5050174;28;20036;-64